Time;durP1;ratioP1;P1;durP2;ratioP2;P2;SDS_P1;SDS_P2;PMS_P1;PMS_P2;Temp;Humidity;BMP_temperature;BMP_pressure;BME280_temperature;BME280_humidity;BME280_pressure;Samples;Min_cycle;Max_cycle;Signal;HPM_P1;HPM_P2
2023/01/10 00:01:33;;;;;;;32.80;16.80;;;;;;;5.65;90.25;97603.79;105281;1265;96510;-66
2023/01/10 00:04:00;;;;;;;29.20;15.00;;;;;;;5.69;90.50;97607.70;105275;1256;96538;-67
2023/01/10 00:06:28;;;;;;;28.60;14.80;;;;;;;5.70;90.00;97612.34;105322;1258;96572;-66
2023/01/10 00:08:59;;;;;;;19.30;10.60;;;;;;;5.64;89.81;97611.87;105193;1258;98320;-67
2023/01/10 00:14:25;;;;;;;18.30;9.40;;;;;;;5.61;89.65;97617.48;105077;1268;96722;-67
2023/01/10 00:16:56;;;;;;;22.20;11.20;;;;;;;5.55;89.33;97621.33;105343;1252;96541;-68
2023/01/10 00:19:27;;;;;;;23.10;11.20;;;;;;;5.49;89.18;97624.77;105362;1257;111480;-69
2023/01/10 00:22:01;;;;;;;24.10;11.20;;;;;;;5.42;89.26;97628.65;105332;1258;99224;-70
2023/01/10 00:24:28;;;;;;;33.10;14.40;;;;;;;5.37;89.57;97630.55;105327;1266;108555;-70
2023/01/10 00:26:55;;;;;;;38.70;16.00;;;;;;;5.31;89.24;97628.73;105280;1257;97378;-68
2023/01/10 00:29:26;;;;;;;36.40;15.60;;;;;;;5.26;89.42;97636.27;105316;1251;96559;-70
2023/01/10 00:31:54;;;;;;;38.40;16.40;;;;;;;5.24;89.60;97639.86;105329;1251;110490;-69
2023/01/10 00:34:22;;;;;;;32.70;15.10;;;;;;;5.23;89.61;97641.34;105390;1257;99179;-69
2023/01/10 00:36:49;;;;;;;27.50;12.50;;;;;;;5.22;89.55;97639.40;105090;1256;109465;-69
2023/01/10 00:39:19;;;;;;;21.10;10.20;;;;;;;5.24;89.58;97644.52;105229;1274;96537;-69
2023/01/10 00:44:31;;;;;;;11.90;6.70;;;;;;;5.29;89.45;97651.23;105303;1257;110405;-69
2023/01/10 00:46:58;;;;;;;11.50;6.10;;;;;;;5.32;89.91;97648.83;105302;1258;96566;-69
2023/01/10 00:49:25;;;;;;;9.10;6.10;;;;;;;5.35;89.80;97651.79;105248;1264;97729;-70
2023/01/10 00:51:56;;;;;;;12.10;6.30;;;;;;;5.39;90.01;97658.45;105321;1257;97440;-69
2023/01/10 00:54:24;;;;;;;10.60;6.10;;;;;;;5.37;89.53;97660.77;105333;1257;96519;-69
2023/01/10 00:56:51;;;;;;;18.00;8.70;;;;;;;5.33;90.02;97665.11;105190;1258;110425;-71
2023/01/10 00:59:18;;;;;;;23.50;11.30;;;;;;;5.29;90.15;97668.70;105321;1251;96542;-75
2023/01/10 01:01:45;;;;;;;18.90;10.00;;;;;;;5.28;90.07;97670.97;105141;1264;96624;-76
2023/01/10 01:04:13;;;;;;;26.10;12.70;;;;;;;5.26;90.02;97673.66;105368;1251;96620;-68
2023/01/10 01:06:46;;;;;;;21.90;12.10;;;;;;;5.22;89.96;97677.80;105342;1252;96648;-68
2023/01/10 01:09:14;;;;;;;19.30;9.70;;;;;;;5.14;90.05;97676.56;105315;1257;110945;-67
2023/01/10 01:11:41;;;;;;;20.80;10.90;;;;;;;5.09;90.35;97674.33;105322;1265;99284;-67
2023/01/10 01:14:08;;;;;;;21.70;11.40;;;;;;;5.07;90.18;97680.29;105132;1260;107671;-67
2023/01/10 01:16:35;;;;;;;19.20;9.30;;;;;;;5.08;90.43;97679.77;105291;1256;97486;-67
2023/01/10 01:19:02;;;;;;;17.70;9.60;;;;;;;5.06;90.59;97676.82;105299;1258;96565;-67
2023/01/10 01:21:29;;;;;;;22.90;11.80;;;;;;;5.04;90.55;97680.60;105336;1258;97840;-66
2023/01/10 01:23:56;;;;;;;18.10;10.60;;;;;;;5.01;90.69;97684.95;105291;1257;97882;-67
2023/01/10 01:26:24;;;;;;;26.00;13.00;;;;;;;4.98;90.82;97684.23;105289;1267;96984;-66
2023/01/10 01:28:51;;;;;;;16.50;9.10;;;;;;;4.98;90.62;97683.31;105331;1265;96574;-67
2023/01/10 01:31:18;;;;;;;15.40;8.80;;;;;;;4.92;90.68;97687.89;105292;1257;97048;-67
2023/01/10 01:33:46;;;;;;;13.30;7.30;;;;;;;4.85;91.06;97687.85;105352;1257;96596;-69
2023/01/10 01:36:13;;;;;;;12.50;7.20;;;;;;;4.78;91.11;97689.66;105306;1258;97875;-70
2023/01/10 01:38:41;;;;;;;13.70;7.60;;;;;;;4.72;91.27;97694.98;105291;1257;96583;-70
2023/01/10 01:41:55;;;;;;;11.60;6.40;;;;;;;4.65;91.47;97692.05;105157;1257;96632;-68
2023/01/10 01:44:13;;;;;;;10.70;5.70;;;;;;;4.58;91.74;97691.38;105412;1252;96641;-71
2023/01/10 01:46:44;;;;;;;17.70;8.40;;;;;;;4.53;91.86;97691.73;105351;1256;110869;-70
2023/01/10 01:49:20;;;;;;;14.30;6.80;;;;;;;4.52;91.90;97687.35;105214;1251;98967;-70
2023/01/10 01:51:50;;;;;;;13.90;5.60;;;;;;;4.51;92.12;97686.05;105155;1269;108841;-71
2023/01/10 01:54:18;;;;;;;13.50;6.40;;;;;;;4.47;92.27;97684.66;105303;1251;96576;-71
2023/01/10 01:56:57;;;;;;;9.80;4.30;;;;;;;4.42;92.02;97686.64;105378;1264;96943;-71
2023/01/10 01:59:29;;;;;;;9.40;5.10;;;;;;;4.39;92.15;97684.95;105312;1266;110822;-72
2023/01/10 02:02:06;;;;;;;11.70;5.90;;;;;;;4.39;92.21;97690.27;105119;1258;98809;-72
2023/01/10 02:05:00;;;;;;;11.40;4.90;;;;;;;4.37;92.34;97692.58;105113;1261;107657;-73
2023/01/10 02:07:32;;;;;;;8.70;4.60;;;;;;;4.32;92.29;97693.09;105338;1257;96628;-73
2023/01/10 02:10:05;;;;;;;9.20;5.30;;;;;;;4.29;92.40;97694.28;105309;1252;97374;-72
2023/01/10 02:12:33;;;;;;;13.60;6.10;;;;;;;4.28;92.74;97693.60;105327;1257;110883;-73
2023/01/10 02:15:02;;;;;;;11.10;5.50;;;;;;;4.29;92.64;97695.42;105275;1256;99575;-72
2023/01/10 02:17:29;;;;;;;7.90;3.70;;;;;;;4.26;92.72;97699.48;105247;1256;108530;-72
2023/01/10 02:20:04;;;;;;;9.80;5.30;;;;;;;4.22;92.94;97702.27;105219;1260;96514;-78
2023/01/10 02:22:56;;;;;;;12.70;6.10;;;;;;;4.20;92.97;97708.64;105292;1257;96519;-71
2023/01/10 02:25:41;;;;;;;7.90;4.90;;;;;;;4.18;93.34;97709.92;105275;1266;110871;-70
2023/01/10 02:28:27;;;;;;;10.60;5.50;;;;;;;4.17;93.44;97712.04;105415;1257;99083;-70
2023/01/10 02:31:32;;;;;;;13.90;7.90;;;;;;;4.16;93.61;97712.59;105330;1251;108777;-72
2023/01/10 02:34:16;;;;;;;15.70;6.90;;;;;;;4.16;93.88;97715.52;105345;1257;97767;-72
2023/01/10 02:36:48;;;;;;;11.50;6.60;;;;;;;4.15;93.86;97719.45;105139;1257;96915;-72
2023/01/10 02:39:41;;;;;;;10.90;7.10;;;;;;;4.17;93.87;97727.17;105304;1257;111019;-72
2023/01/10 02:42:17;;;;;;;14.70;7.90;;;;;;;4.21;93.99;97726.20;105342;1257;99090;-72
2023/01/10 02:44:50;;;;;;;15.20;7.80;;;;;;;4.23;93.82;97735.16;105141;1267;107527;-72
2023/01/10 02:47:18;;;;;;;10.80;6.70;;;;;;;4.25;94.01;97734.70;105376;1258;96560;-72
2023/01/10 02:49:47;;;;;;;15.90;9.50;;;;;;;4.30;93.96;97741.08;105191;1252;96965;-72
2023/01/10 02:52:24;;;;;;;14.20;9.20;;;;;;;4.41;93.95;97749.33;105138;1257;110335;-73
2023/01/10 02:54:57;;;;;;;12.40;7.10;;;;;;;4.52;94.00;97755.56;105295;1266;99171;-72
2023/01/10 02:57:50;;;;;;;11.40;6.20;;;;;;;4.53;93.48;97761.67;105304;1256;108062;-72
2023/01/10 03:00:39;;;;;;;10.70;5.50;;;;;;;4.57;93.54;97763.89;105294;1257;96604;-72
2023/01/10 03:03:43;;;;;;;10.90;5.80;;;;;;;4.60;93.67;97762.25;105129;1256;97339;-72
2023/01/10 03:06:40;;;;;;;11.30;6.90;;;;;;;4.60;93.37;97768.13;105072;1257;111087;-72
2023/01/10 03:09:20;;;;;;;11.20;6.70;;;;;;;4.59;93.24;97775.09;105121;1265;99345;-72
2023/01/10 03:11:53;;;;;;;9.70;6.00;;;;;;;4.58;93.13;97776.23;105294;1273;108724;-72
2023/01/10 03:14:25;;;;;;;12.10;7.00;;;;;;;4.60;93.32;97777.41;105245;1257;96621;-72
2023/01/10 03:16:57;;;;;;;22.20;10.90;;;;;;;4.63;93.16;97784.09;105331;1257;98186;-71
2023/01/10 03:19:32;;;;;;;15.90;7.90;;;;;;;4.66;93.29;97785.67;105282;1256;110831;-71
2023/01/10 03:22:03;;;;;;;13.90;8.60;;;;;;;4.73;93.46;97792.73;105303;1274;98979;-71
2023/01/10 03:24:37;;;;;;;15.50;10.20;;;;;;;4.83;93.67;97799.14;105227;1256;108580;-71
2023/01/10 03:27:52;;;;;;;17.10;10.00;;;;;;;4.81;92.94;97804.54;105210;1255;96523;-72
2023/01/10 03:30:48;;;;;;;13.50;7.50;;;;;;;4.82;93.25;97806.31;105033;1257;96638;-72
2023/01/10 03:33:22;;;;;;;12.70;6.70;;;;;;;4.82;93.26;97814.18;105152;1260;111624;-71
2023/01/10 03:36:15;;;;;;;15.40;9.10;;;;;;;4.81;93.25;97816.11;105100;1256;99166;-72
2023/01/10 03:38:51;;;;;;;21.10;10.70;;;;;;;4.75;93.03;97819.13;105049;1256;108648;-72
2023/01/10 03:41:33;;;;;;;16.70;9.60;;;;;;;4.77;93.43;97820.24;104800;1261;97882;-74
2023/01/10 03:44:45;;;;;;;19.30;10.80;;;;;;;4.84;93.52;97824.84;105025;1260;98067;-72
2023/01/10 03:47:18;;;;;;;18.70;10.30;;;;;;;4.92;93.63;97830.42;105188;1257;110750;-69
2023/01/10 03:49:49;;;;;;;15.70;9.90;;;;;;;5.01;93.75;97834.57;105196;1257;100309;-70
2023/01/10 03:52:18;;;;;;;17.10;8.50;;;;;;;5.04;93.17;97839.64;105211;1258;108286;-71
2023/01/10 03:54:46;;;;;;;12.30;7.80;;;;;;;5.04;92.79;97843.21;105070;1260;97866;-71
2023/01/10 03:57:16;;;;;;;12.60;7.30;;;;;;;5.07;92.89;97847.66;105178;1257;96564;-71
2023/01/10 03:59:44;;;;;;;13.00;7.40;;;;;;;5.01;92.29;97854.98;105123;1260;111429;-70
2023/01/10 04:02:11;;;;;;;12.20;6.80;;;;;;;4.92;92.28;97863.39;105120;1257;96557;-70
2023/01/10 04:04:38;;;;;;;14.70;7.80;;;;;;;4.89;92.76;97861.73;105115;1254;96558;-69
2023/01/10 04:07:05;;;;;;;13.70;8.80;;;;;;;4.85;92.71;97862.67;105134;1258;96542;-71
2023/01/10 04:09:33;;;;;;;16.10;9.40;;;;;;;4.81;92.90;97861.81;105204;1254;96558;-70
2023/01/10 04:12:01;;;;;;;17.00;9.90;;;;;;;4.77;92.88;97866.33;105116;1257;96648;-70
2023/01/10 04:14:28;;;;;;;17.60;11.10;;;;;;;4.75;92.91;97868.42;105158;1258;96552;-70
2023/01/10 04:16:55;;;;;;;17.80;10.60;;;;;;;4.79;93.18;97872.60;105145;1260;97863;-70
2023/01/10 04:19:22;;;;;;;17.10;10.20;;;;;;;4.80;93.10;97875.75;105185;1261;96927;-72
2023/01/10 04:21:53;;;;;;;19.90;11.00;;;;;;;4.81;93.15;97877.40;105121;1257;96875;-72
2023/01/10 04:24:20;;;;;;;17.80;10.00;;;;;;;4.85;93.46;97877.10;104994;1258;110288;-72
2023/01/10 04:26:48;;;;;;;18.60;11.70;;;;;;;4.88;93.16;97881.68;105123;1254;100473;-72
2023/01/10 04:29:15;;;;;;;19.70;11.10;;;;;;;4.89;93.20;97879.72;105078;1258;109794;-72
2023/01/10 04:31:42;;;;;;;18.00;11.10;;;;;;;4.89;93.04;97882.98;105291;1256;96661;-73
2023/01/10 04:34:09;;;;;;;21.40;12.30;;;;;;;4.88;93.51;97885.45;105195;1258;97862;-72
2023/01/10 04:36:36;;;;;;;22.40;12.70;;;;;;;4.90;93.57;97885.46;105396;1257;96539;-72
2023/01/10 04:39:03;;;;;;;23.70;13.30;;;;;;;4.88;93.07;97891.23;105253;1257;96545;-73
2023/01/10 04:41:30;;;;;;;25.50;14.50;;;;;;;4.85;93.14;97895.96;105028;1257;395681;-73
2023/01/10 04:43:57;;;;;;;27.20;15.10;;;;;;;4.82;93.40;97904.85;105373;1251;96651;-73
2023/01/10 04:46:24;;;;;;;37.70;19.50;;;;;;;4.80;93.36;97909.19;105404;1256;96602;-73
2023/01/10 04:48:51;;;;;;;29.40;17.20;;;;;;;4.81;93.30;97916.98;105354;1258;99420;-74
2023/01/10 04:51:18;;;;;;;26.40;14.90;;;;;;;4.81;93.10;97923.38;105310;1256;96652;-73
2023/01/10 04:53:45;;;;;;;24.10;14.20;;;;;;;4.82;93.23;97925.60;105411;1257;96564;-74
2023/01/10 04:56:17;;;;;;;24.00;14.20;;;;;;;4.82;93.34;97930.01;105312;1251;97152;-74
2023/01/10 04:58:46;;;;;;;25.50;14.90;;;;;;;4.83;93.47;97935.39;105386;1251;110238;-75
2023/01/10 05:01:16;;;;;;;28.60;16.30;;;;;;;4.86;93.35;97934.71;105276;1257;99291;-75
2023/01/10 05:03:43;;;;;;;46.40;24.30;;;;;;;4.85;93.22;97937.66;105296;1264;108597;-77
2023/01/10 05:06:10;;;;;;;28.00;14.50;;;;;;;4.88;93.21;97939.41;105252;1257;96632;-70
2023/01/10 05:08:37;;;;;;;25.70;13.70;;;;;;;4.89;93.11;97946.30;105337;1256;96452;-72
2023/01/10 05:11:03;;;;;;;30.60;15.10;;;;;;;4.90;93.44;97952.95;105393;1251;96625;-71
2023/01/10 05:13:30;;;;;;;115.80;35.20;;;;;;;4.88;93.06;97956.24;105303;1257;96523;-73
2023/01/10 05:15:59;;;;;;;146.90;45.80;;;;;;;4.86;93.38;97959.59;105295;1257;96599;-75
2023/01/10 05:18:28;;;;;;;274.10;80.00;;;;;;;4.77;92.67;97959.34;105419;1257;96577;-74
2023/01/10 05:21:06;;;;;;;308.10;88.10;;;;;;;4.67;92.94;97966.14;105470;1255;97415;-74
2023/01/10 05:23:33;;;;;;;427.60;121.10;;;;;;;4.64;93.46;97973.71;105346;1257;111074;-74
2023/01/10 05:26:11;;;;;;;347.70;93.80;;;;;;;4.63;93.54;97976.73;105362;1257;96554;-74
2023/01/10 05:28:39;;;;;;;373.90;106.30;;;;;;;4.62;93.43;97978.95;105369;1257;108743;-74
2023/01/10 05:31:11;;;;;;;378.70;112.20;;;;;;;4.62;93.38;97978.79;105269;1255;96581;-76
2023/01/10 05:33:43;;;;;;;279.20;86.60;;;;;;;4.65;93.58;97979.73;105390;1257;97004;-74
2023/01/10 05:36:10;;;;;;;380.00;115.50;;;;;;;4.69;93.63;97983.60;105409;1256;110706;-75
2023/01/10 05:38:36;;;;;;;267.30;87.90;;;;;;;4.71;93.38;97989.38;105192;1258;96554;-76
2023/01/10 05:41:04;;;;;;;165.40;58.90;;;;;;;4.73;93.48;97994.46;105252;1257;97464;-78
2023/01/10 05:43:31;;;;;;;140.50;53.30;;;;;;;4.76;93.52;97994.59;105255;1266;96564;-78
2023/01/10 05:45:58;;;;;;;158.10;61.90;;;;;;;4.76;93.22;98000.77;105402;1251;96623;-78
2023/01/10 05:48:25;;;;;;;144.60;56.20;;;;;;;4.71;92.87;98005.73;105394;1257;97450;-78
2023/01/10 05:50:52;;;;;;;188.30;76.10;;;;;;;4.67;93.41;98003.11;105243;1257;96631;-78
2023/01/10 05:53:20;;;;;;;114.30;48.70;;;;;;;4.61;93.14;98010.45;105393;1257;96552;-79
2023/01/10 05:55:59;;;;;;;79.80;35.80;;;;;;;4.54;93.57;98016.88;105395;1257;96509;-78
2023/01/10 05:58:27;;;;;;;76.00;33.00;;;;;;;4.49;93.82;98021.17;105364;1251;96662;-78
2023/01/10 06:00:55;;;;;;;56.90;27.20;;;;;;;4.43;93.67;98026.40;105405;1257;111239;-80
2023/01/10 06:03:25;;;;;;;53.40;24.40;;;;;;;4.35;93.66;98028.75;105330;1251;99230;-81
2023/01/10 06:05:53;;;;;;;40.50;21.20;;;;;;;4.32;94.03;98035.79;104996;1260;107845;-79
2023/01/10 06:08:21;;;;;;;84.40;38.10;;;;;;;4.32;94.10;98035.80;105326;1255;97873;-79
2023/01/10 06:10:48;;;;;;;56.90;26.70;;;;;;;4.31;94.21;98044.43;105431;1257;97114;-79
2023/01/10 06:13:15;;;;;;;72.20;32.90;;;;;;;4.29;94.19;98046.52;105358;1257;97758;-79
2023/01/10 06:15:42;;;;;;;36.60;19.60;;;;;;;4.26;94.24;98049.08;105278;1257;96564;-79
2023/01/10 06:18:09;;;;;;;45.40;22.00;;;;;;;4.24;94.15;98053.57;105373;1251;96983;-79
2023/01/10 06:20:39;;;;;;;30.20;17.90;;;;;;;4.22;94.22;98054.89;105390;1251;96630;-80
2023/01/10 06:23:06;;;;;;;31.90;17.40;;;;;;;4.21;94.68;98058.65;105408;1257;96466;-80
2023/01/10 06:25:36;;;;;;;26.30;15.30;;;;;;;4.18;94.59;98063.23;105216;1257;97325;-82
2023/01/10 06:28:03;;;;;;;22.30;13.90;;;;;;;4.15;94.54;98064.67;105301;1256;99074;-75
2023/01/10 06:30:30;;;;;;;26.20;16.70;;;;;;;4.10;94.44;98072.83;105339;1257;96524;-74
2023/01/10 06:33:05;;;;;;;33.10;20.30;;;;;;;4.08;94.73;98075.69;105383;1251;96665;-74
2023/01/10 06:35:32;;;;;;;35.10;21.50;;;;;;;4.07;94.85;98080.79;105409;1257;96683;-75
2023/01/10 06:38:00;;;;;;;33.80;22.50;;;;;;;4.09;94.68;98083.04;105373;1264;96546;-79
2023/01/10 06:40:27;;;;;;;35.80;20.90;;;;;;;4.15;95.00;98090.42;105390;1256;98975;-79
2023/01/10 06:42:54;;;;;;;42.70;27.50;;;;;;;4.18;94.74;98094.63;105355;1257;108570;-79
2023/01/10 06:45:21;;;;;;;53.60;29.10;;;;;;;4.23;94.99;98097.23;105347;1265;96625;-79
2023/01/10 06:47:48;;;;;;;56.50;29.40;;;;;;;4.25;94.85;98097.44;105334;1256;97099;-78
2023/01/10 06:50:15;;;;;;;54.20;30.30;;;;;;;4.30;94.83;98098.75;105292;1257;96548;-80
2023/01/10 06:52:42;;;;;;;42.80;23.70;;;;;;;4.36;94.93;98102.05;105267;1257;97250;-80
2023/01/10 06:55:09;;;;;;;31.30;18.40;;;;;;;4.41;94.92;98103.58;105357;1257;96625;-80
2023/01/10 06:57:37;;;;;;;25.90;14.90;;;;;;;4.36;94.36;98109.48;105408;1257;96606;-78
2023/01/10 07:00:06;;;;;;;29.70;18.30;;;;;;;4.30;94.54;98111.11;105346;1257;110863;-80
2023/01/10 07:02:33;;;;;;;36.50;20.40;;;;;;;4.31;94.88;98113.44;105432;1257;98716;-73
2023/01/10 07:05:00;;;;;;;29.40;17.50;;;;;;;4.32;94.80;98120.33;105417;1260;97879;-73
2023/01/10 07:07:27;;;;;;;23.00;12.60;;;;;;;4.30;95.07;98126.25;105392;1256;97530;-73
2023/01/10 07:09:54;;;;;;;25.70;14.00;;;;;;;4.29;95.01;98130.81;105289;1257;98354;-73
2023/01/10 07:12:21;;;;;;;28.10;16.10;;;;;;;4.30;94.84;98130.42;105358;1266;97850;-73
2023/01/10 07:14:48;;;;;;;29.30;16.80;;;;;;;4.27;94.91;98132.61;105399;1266;97923;-73
2023/01/10 07:17:15;;;;;;;30.60;16.50;;;;;;;4.27;94.93;98135.71;105322;1257;96564;-73
2023/01/10 07:19:42;;;;;;;28.90;15.80;;;;;;;4.32;95.29;98132.20;105356;1264;97982;-73
2023/01/10 07:22:11;;;;;;;29.80;15.30;;;;;;;4.40;95.25;98138.15;105067;1258;109324;-71
2023/01/10 07:24:37;;;;;;;32.60;15.80;;;;;;;4.45;95.20;98141.58;105443;1256;98897;-72
2023/01/10 07:27:04;;;;;;;29.10;15.80;;;;;;;4.48;94.98;98144.20;105170;1260;96632;-71
2023/01/10 07:29:31;;;;;;;30.10;16.60;;;;;;;4.55;95.13;98145.61;105379;1258;96641;-70
2023/01/10 07:31:58;;;;;;;28.10;15.00;;;;;;;4.61;94.83;98148.64;105310;1266;96539;-71
2023/01/10 07:34:25;;;;;;;28.50;15.80;;;;;;;4.66;95.14;98147.02;105403;1251;97882;-71
2023/01/10 07:36:52;;;;;;;27.50;14.80;;;;;;;4.69;94.85;98148.30;105389;1266;96552;-71
2023/01/10 07:39:19;;;;;;;26.00;16.00;;;;;;;4.63;94.67;98148.50;105295;1257;96545;-71
2023/01/10 07:41:47;;;;;;;33.00;17.20;;;;;;;4.54;94.35;98154.58;105392;1256;96569;-71
2023/01/10 07:44:14;;;;;;;27.00;16.50;;;;;;;4.50;95.15;98160.85;105423;1258;110271;-71
2023/01/10 07:46:41;;;;;;;31.00;16.80;;;;;;;4.52;95.27;98158.48;105191;1252;96627;-70
2023/01/10 07:49:09;;;;;;;30.10;16.00;;;;;;;4.55;95.12;98167.70;105285;1257;96564;-71
2023/01/10 07:51:35;;;;;;;27.80;15.90;;;;;;;4.58;95.32;98163.98;105317;1257;96695;-73
2023/01/10 07:54:03;;;;;;;29.40;16.40;;;;;;;4.63;95.22;98163.60;105391;1252;97738;-72
2023/01/10 07:56:30;;;;;;;30.00;15.20;;;;;;;4.66;94.95;98162.02;105395;1256;96606;-71
2023/01/10 07:58:57;;;;;;;25.80;14.00;;;;;;;4.67;94.84;98164.87;105397;1255;96548;-72
2023/01/10 08:01:24;;;;;;;24.30;13.20;;;;;;;4.70;95.02;98168.16;105432;1264;96641;-72
2023/01/10 08:03:52;;;;;;;17.90;10.40;;;;;;;4.72;95.01;98173.14;105348;1257;97847;-72
2023/01/10 08:06:19;;;;;;;24.40;12.70;;;;;;;4.71;94.78;98179.48;105422;1257;96622;-71
2023/01/10 08:08:46;;;;;;;21.20;12.60;;;;;;;4.74;95.00;98187.12;105383;1257;96990;-72
2023/01/10 08:11:13;;;;;;;22.40;11.80;;;;;;;4.80;94.86;98193.08;105396;1255;96633;-74
2023/01/10 08:13:40;;;;;;;26.80;13.80;;;;;;;4.79;94.55;98201.23;105434;1251;97812;-71
2023/01/10 08:16:07;;;;;;;28.10;14.60;;;;;;;4.81;94.93;98200.08;105120;1259;97963;-71
2023/01/10 08:18:35;;;;;;;24.80;14.20;;;;;;;4.88;95.00;98200.98;105377;1256;97035;-72
2023/01/10 08:21:02;;;;;;;29.10;14.40;;;;;;;4.91;94.67;98199.21;105291;1257;97343;-72
2023/01/10 08:23:29;;;;;;;22.50;12.60;;;;;;;4.87;94.51;98203.17;105209;1257;97037;-72
2023/01/10 08:25:58;;;;;;;23.50;12.90;;;;;;;4.81;94.51;98200.89;105374;1256;96555;-73
2023/01/10 08:28:25;;;;;;;29.10;14.10;;;;;;;4.77;94.66;98196.54;105383;1257;96577;-72
2023/01/10 08:30:54;;;;;;;22.90;12.20;;;;;;;4.75;94.85;98197.75;105317;1257;96542;-72
2023/01/10 08:33:24;;;;;;;25.80;13.00;;;;;;;4.73;94.72;98200.00;105363;1257;99219;-72
2023/01/10 08:36:29;;;;;;;28.30;16.10;;;;;;;4.72;94.80;98205.70;105160;1251;107606;-71
2023/01/10 08:38:56;;;;;;;24.50;13.60;;;;;;;4.73;94.77;98217.16;104690;1264;96748;-73
2023/01/10 08:41:23;;;;;;;22.30;13.50;;;;;;;4.76;94.80;98227.27;104804;1267;96658;-72
2023/01/10 08:43:51;;;;;;;22.80;13.20;;;;;;;4.79;94.85;98234.91;104687;1266;97905;-72
2023/01/10 08:46:19;;;;;;;26.00;13.60;;;;;;;4.81;94.63;98235.91;104639;1265;96573;-72
2023/01/10 08:48:49;;;;;;;26.50;13.50;;;;;;;4.83;94.54;98249.13;104656;1260;108776;-72
2023/01/10 08:51:17;;;;;;;25.80;13.40;;;;;;;4.87;94.62;98253.73;104732;1265;97621;-72
2023/01/10 08:53:44;;;;;;;24.60;13.90;;;;;;;4.84;94.39;98256.95;104802;1260;97116;-72
2023/01/10 08:56:11;;;;;;;21.90;12.30;;;;;;;4.90;94.75;98259.19;104759;1266;97697;-72
2023/01/10 08:58:38;;;;;;;21.40;12.90;;;;;;;4.93;94.64;98265.63;104755;1266;96737;-72
2023/01/10 09:01:10;;;;;;;23.50;12.30;;;;;;;4.94;94.92;98273.86;104705;1265;97368;-72
2023/01/10 09:03:45;;;;;;;25.00;14.00;;;;;;;4.93;94.58;98280.27;104668;1264;97856;-72
2023/01/10 09:06:15;;;;;;;27.10;13.30;;;;;;;4.91;94.66;98285.13;104675;1265;96566;-72
2023/01/10 09:08:42;;;;;;;23.70;13.10;;;;;;;4.87;94.43;98290.53;104620;1263;96744;-73
2023/01/10 09:11:09;;;;;;;22.90;12.80;;;;;;;4.83;94.20;98295.83;105113;1251;97843;-72
2023/01/10 09:13:36;;;;;;;23.30;12.10;;;;;;;4.82;94.53;98303.73;105299;1251;97969;-73
2023/01/10 09:16:03;;;;;;;22.60;11.80;;;;;;;4.80;94.41;98304.17;105394;1257;96542;-72
2023/01/10 09:18:30;;;;;;;21.30;11.90;;;;;;;4.80;94.16;98310.91;105361;1257;97886;-73
2023/01/10 09:20:57;;;;;;;21.20;11.40;;;;;;;4.83;94.49;98312.95;105425;1255;97054;-72
2023/01/10 09:23:25;;;;;;;21.50;11.60;;;;;;;4.85;94.42;98321.83;105397;1251;97211;-71
2023/01/10 09:25:56;;;;;;;23.70;12.30;;;;;;;4.87;94.74;98325.40;105330;1251;96583;-72
2023/01/10 09:28:23;;;;;;;22.20;12.40;;;;;;;4.90;94.46;98331.67;105397;1251;97342;-72
2023/01/10 09:30:50;;;;;;;22.20;12.00;;;;;;;4.91;94.09;98329.28;105421;1257;96542;-72
2023/01/10 09:33:18;;;;;;;21.20;12.10;;;;;;;4.94;93.98;98333.38;105358;1256;96552;-71
2023/01/10 09:35:45;;;;;;;19.80;11.50;;;;;;;4.97;94.25;98335.38;105367;1257;96545;-73
2023/01/10 09:38:16;;;;;;;22.70;12.20;;;;;;;4.98;94.29;98337.48;105361;1257;96733;-71
2023/01/10 09:40:50;;;;;;;21.40;11.60;;;;;;;4.99;94.35;98345.95;105415;1253;96561;-72
2023/01/10 09:43:44;;;;;;;20.00;11.60;;;;;;;4.95;93.71;98351.95;105390;1256;96598;-72
2023/01/10 09:46:20;;;;;;;23.20;13.50;;;;;;;4.93;94.15;98351.96;105268;1257;110397;-72
2023/01/10 09:49:28;;;;;;;21.00;10.90;;;;;;;4.91;94.33;98352.04;105299;1257;98212;-70
2023/01/10 09:51:57;;;;;;;20.20;11.00;;;;;;;4.87;94.29;98351.24;105071;1260;107758;-72
2023/01/10 09:54:35;;;;;;;21.40;11.70;;;;;;;4.84;94.17;98348.95;105450;1257;96545;-72
2023/01/10 09:57:02;;;;;;;22.00;12.10;;;;;;;4.82;94.51;98352.22;105242;1251;97873;-71
2023/01/10 09:59:39;;;;;;;17.60;11.20;;;;;;;4.81;94.47;98351.90;105405;1251;110345;-71
2023/01/10 10:02:16;;;;;;;19.10;10.80;;;;;;;4.82;94.57;98354.98;105380;1251;97330;-71
2023/01/10 10:05:15;;;;;;;17.20;9.60;;;;;;;4.85;94.18;98361.36;105353;1257;107606;-72
2023/01/10 10:07:42;;;;;;;17.30;10.70;;;;;;;4.87;94.01;98362.92;105440;1264;96539;-72
2023/01/10 10:10:20;;;;;;;16.70;10.40;;;;;;;4.89;94.12;98359.27;105171;1259;97851;-72
2023/01/10 10:13:02;;;;;;;17.10;10.10;;;;;;;4.93;94.29;98362.77;105360;1257;110782;-71
2023/01/10 10:15:51;;;;;;;16.10;9.70;;;;;;;4.98;93.89;98360.30;105450;1256;99154;-72
2023/01/10 10:18:54;;;;;;;17.80;10.40;;;;;;;5.00;94.08;98364.41;105389;1257;108173;-71
2023/01/10 10:21:34;;;;;;;18.70;10.30;;;;;;;5.03;93.93;98368.62;105345;1257;96646;-72
2023/01/10 10:24:37;;;;;;;25.10;12.00;;;;;;;5.06;94.05;98371.70;105209;1251;96642;-72
2023/01/10 10:27:07;;;;;;;20.60;9.90;;;;;;;5.05;93.41;98380.29;105417;1256;110900;-72
2023/01/10 10:30:00;;;;;;;19.10;10.30;;;;;;;4.98;93.72;98381.70;105199;1256;98583;-70
2023/01/10 10:32:49;;;;;;;17.80;10.00;;;;;;;4.97;93.96;98380.30;105282;1257;108525;-73
2023/01/10 10:35:37;;;;;;;16.20;9.10;;;;;;;4.93;93.76;98379.72;105292;1256;97500;-76
2023/01/10 10:38:12;;;;;;;16.30;8.20;;;;;;;4.88;93.96;98381.88;105454;1257;96535;-72
2023/01/10 10:40:43;;;;;;;20.70;10.70;;;;;;;4.82;93.99;98379.91;105364;1257;112392;-72
2023/01/10 10:43:20;;;;;;;19.70;10.10;;;;;;;4.83;94.32;98387.61;105218;1259;99666;-72
2023/01/10 10:45:59;;;;;;;25.80;11.00;;;;;;;4.83;94.26;98395.15;105375;1255;109783;-72
2023/01/10 10:48:30;;;;;;;19.50;9.80;;;;;;;4.84;94.21;98396.61;105399;1256;97925;-72
2023/01/10 10:51:13;;;;;;;16.80;9.40;;;;;;;4.84;93.80;98397.60;105419;1257;98235;-72
2023/01/10 10:53:40;;;;;;;20.60;8.90;;;;;;;4.86;93.87;98399.70;105448;1257;112651;-72
2023/01/10 10:56:13;;;;;;;25.10;9.10;;;;;;;4.90;94.10;98405.31;105357;1265;97889;-72
2023/01/10 10:58:43;;;;;;;18.40;8.70;;;;;;;4.91;93.95;98406.29;105410;1257;108564;-72
2023/01/10 11:01:14;;;;;;;17.10;9.10;;;;;;;4.95;94.13;98412.17;105344;1257;97928;-72
2023/01/10 11:03:47;;;;;;;18.60;8.00;;;;;;;5.00;94.14;98413.56;105268;1257;99670;-73
2023/01/10 11:06:16;;;;;;;13.30;8.00;;;;;;;5.02;93.40;98417.77;105365;1257;112184;-72
2023/01/10 11:08:47;;;;;;;16.60;8.90;;;;;;;5.07;94.16;98419.81;105460;1257;99302;-74
2023/01/10 11:11:21;;;;;;;15.10;8.00;;;;;;;5.09;94.05;98420.99;105384;1265;107692;-73
2023/01/10 11:13:57;;;;;;;15.60;8.20;;;;;;;5.09;93.78;98424.89;105403;1256;98019;-73
2023/01/10 11:16:26;;;;;;;12.90;7.00;;;;;;;5.05;93.34;98425.86;105359;1251;99298;-73
2023/01/10 11:19:23;;;;;;;15.20;8.00;;;;;;;4.96;93.29;98429.06;105363;1257;112410;-73
2023/01/10 11:22:02;;;;;;;13.90;7.50;;;;;;;4.97;94.24;98430.85;105409;1257;99170;-71
2023/01/10 11:24:33;;;;;;;13.70;7.50;;;;;;;4.97;93.85;98435.58;105326;1257;107468;-71
2023/01/10 11:27:15;;;;;;;19.20;7.50;;;;;;;4.94;93.61;98440.59;105365;1256;99235;-71
2023/01/10 11:29:47;;;;;;;24.80;8.70;;;;;;;4.94;93.70;98441.90;105466;1252;98355;-71
2023/01/10 11:32:18;;;;;;;19.90;9.00;;;;;;;4.95;93.76;98444.27;105301;1257;112729;-71
2023/01/10 11:35:00;;;;;;;15.90;8.10;;;;;;;4.96;93.78;98450.96;105417;1257;99327;-72
2023/01/10 11:37:32;;;;;;;17.10;8.40;;;;;;;4.96;93.72;98451.78;105206;1255;106632;-72
2023/01/10 11:40:22;;;;;;;12.30;7.00;;;;;;;4.93;93.49;98451.84;105263;1257;97958;-71
2023/01/10 11:42:55;;;;;;;10.20;6.20;;;;;;;4.94;93.88;98457.64;105386;1258;98312;-70
2023/01/10 11:45:32;;;;;;;10.90;6.50;;;;;;;4.93;93.83;98459.95;105241;1264;114178;-70